Time;durP1;ratioP1;P1;durP2;ratioP2;P2;SDS_P1;SDS_P2;PMS_P1;PMS_P2;Temp;Humidity;BMP_temperature;BMP_pressure;BME280_temperature;BME280_humidity;BME280_pressure;Samples;Min_cycle;Max_cycle;Signal;HPM_P1;HPM_P2
2022/11/20 00:01:21;;;;;;;13.65;12.75;;;;;;;;;;10196384;28;20069;-65
2022/11/20 00:06:18;;;;;;;15.52;14.18;;;;;;;;;;10188975;28;20523;-65
2022/11/20 00:11:18;;;;;;;14.85;13.75;;;;;;;;;;10195681;28;20125;-65
2022/11/20 00:16:17;;;;;;;15.30;14.10;;;;;;;;;;10191472;28;20583;-65
2022/11/20 00:21:14;;;;;;;14.93;13.82;;;;;;;;;;10194935;28;20038;-65
2022/11/20 00:26:14;;;;;;;15.32;14.18;;;;;;;;;;10193980;28;20041;-65
2022/11/20 00:31:12;;;;;;;16.13;14.63;;;;;;;;;;10194652;28;20144;-65
2022/11/20 00:36:10;;;;;;;15.80;14.77;;;;;;;;;;10193541;28;20496;-65
2022/11/20 00:41:08;;;;;;;17.10;15.93;;;;;;;;;;10194045;28;20053;-65
2022/11/20 00:46:08;;;;;;;18.70;17.33;;;;;;;;;;10193113;28;20041;-65
2022/11/20 00:51:05;;;;;;;18.00;16.50;;;;;;;;;;10192930;28;20132;-65
2022/11/20 00:56:03;;;;;;;18.13;16.92;;;;;;;;;;10193831;28;20129;-65
2022/11/20 01:01:03;;;;;;;20.33;18.73;;;;;;;;;;10189688;28;20125;-65
2022/11/20 01:06:01;;;;;;;18.10;16.83;;;;;;;;;;10192523;28;20073;-65
2022/11/20 01:11:01;;;;;;;18.13;16.52;;;;;;;;;;10193095;28;20463;-65
2022/11/20 01:16:08;;;;;;;19.63;18.43;;;;;;;;;;10191932;28;20061;-65
2022/11/20 01:21:06;;;;;;;20.55;19.00;;;;;;;;;;10193164;28;20460;-65
2022/11/20 01:26:03;;;;;;;23.20;21.65;;;;;;;;;;10188939;28;20042;-65
2022/11/20 01:31:00;;;;;;;24.70;23.10;;;;;;;;;;10191578;28;20049;-65
2022/11/20 01:36:03;;;;;;;25.00;23.30;;;;;;;;;;10192009;28;20140;-65
2022/11/20 01:40:59;;;;;;;28.05;26.33;;;;;;;;;;10191189;28;20419;-65
2022/11/20 01:45:57;;;;;;;30.58;28.67;;;;;;;;;;10186435;28;20439;-65
2022/11/20 01:50:54;;;;;;;27.90;26.20;;;;;;;;;;10190978;28;20065;-65
2022/11/20 01:55:54;;;;;;;31.85;29.23;;;;;;;;;;10188207;28;20045;-65
2022/11/20 02:00:50;;;;;;;33.92;32.03;;;;;;;;;;10191671;28;20038;-65
2022/11/20 02:05:53;;;;;;;34.72;32.78;;;;;;;;;;10189487;28;20054;-65
2022/11/20 02:10:49;;;;;;;36.20;33.97;;;;;;;;;;10191030;28;20057;-65
2022/11/20 02:15:46;;;;;;;35.83;33.63;;;;;;;;;;10190915;28;20050;-65
2022/11/20 02:20:43;;;;;;;35.65;33.42;;;;;;;;;;10191526;28;20046;-65
2022/11/20 02:25:40;;;;;;;35.03;32.85;;;;;;;;;;10191008;28;20053;-65
2022/11/20 02:30:37;;;;;;;36.25;34.13;;;;;;;;;;10191080;28;20050;-65
2022/11/20 02:35:33;;;;;;;35.83;33.72;;;;;;;;;;10189694;28;20136;-65
2022/11/20 02:40:29;;;;;;;34.80;32.60;;;;;;;;;;10189694;28;20121;-65
2022/11/20 02:45:25;;;;;;;32.58;30.58;;;;;;;;;;10190687;28;20140;-65
2022/11/20 02:50:22;;;;;;;38.45;36.20;;;;;;;;;;10186031;28;20068;-65
2022/11/20 02:55:18;;;;;;;36.60;34.55;;;;;;;;;;10190343;28;20042;-65
2022/11/20 03:00:14;;;;;;;39.83;37.67;;;;;;;;;;10187534;28;20455;-65
2022/11/20 03:05:10;;;;;;;39.08;36.88;;;;;;;;;;10189569;28;20066;-65
2022/11/20 03:10:07;;;;;;;37.72;35.20;;;;;;;;;;10196472;28;20053;-65
2022/11/20 03:15:04;;;;;;;39.95;37.17;;;;;;;;;;10197196;28;20034;-66
2022/11/20 03:20:00;;;;;;;39.72;37.53;;;;;;;;;;10197737;28;20053;-65
2022/11/20 03:24:56;;;;;;;36.83;34.72;;;;;;;;;;10195925;28;20464;-65
2022/11/20 03:29:52;;;;;;;37.83;35.70;;;;;;;;;;10194878;28;20117;-65
2022/11/20 03:34:49;;;;;;;37.17;34.88;;;;;;;;;;10196353;28;20659;-65
2022/11/20 03:39:45;;;;;;;34.95;32.70;;;;;;;;;;10193740;28;20046;-65
2022/11/20 03:44:41;;;;;;;34.72;32.25;;;;;;;;;;10196399;28;20042;-65
2022/11/20 03:49:37;;;;;;;38.17;35.75;;;;;;;;;;10192814;28;20126;-65
2022/11/20 03:54:33;;;;;;;32.95;30.98;;;;;;;;;;10195477;28;20048;-65
2022/11/20 03:59:30;;;;;;;32.45;30.45;;;;;;;;;;10195349;28;20130;-65
2022/11/20 04:04:26;;;;;;;33.08;31.25;;;;;;;;;;10195431;28;20064;-65
2022/11/20 04:09:22;;;;;;;30.40;28.60;;;;;;;;;;10194088;28;20411;-65
2022/11/20 04:14:19;;;;;;;33.08;31.15;;;;;;;;;;10194942;28;20488;-65
2022/11/20 04:19:18;;;;;;;34.95;32.95;;;;;;;;;;10193953;28;20038;-65
2022/11/20 04:24:15;;;;;;;34.90;32.80;;;;;;;;;;10194605;28;20443;-65
2022/11/20 04:29:11;;;;;;;34.80;32.65;;;;;;;;;;10194018;28;20499;-65
2022/11/20 04:34:07;;;;;;;36.83;34.53;;;;;;;;;;10193444;28;20053;-65
2022/11/20 04:39:05;;;;;;;38.78;36.47;;;;;;;;;;10193799;28;20065;-65
2022/11/20 04:44:04;;;;;;;35.67;33.58;;;;;;;;;;10194555;28;20070;-65
2022/11/20 04:49:01;;;;;;;34.50;32.35;;;;;;;;;;10193438;28;20744;-65
2022/11/20 04:53:57;;;;;;;38.28;35.97;;;;;;;;;;10193933;28;20038;-65
2022/11/20 04:58:53;;;;;;;42.50;40.10;;;;;;;;;;10192729;28;20053;-65
2022/11/20 05:03:49;;;;;;;41.17;38.30;;;;;;;;;;10188441;28;20699;-65
2022/11/20 05:08:46;;;;;;;40.58;38.28;;;;;;;;;;10193113;28;20050;-65
2022/11/20 05:13:42;;;;;;;38.20;35.35;;;;;;;;;;10192629;28;20056;-65
2022/11/20 05:18:39;;;;;;;40.53;38.13;;;;;;;;;;10192201;28;20401;-65
2022/11/20 05:23:35;;;;;;;41.00;37.95;;;;;;;;;;10190629;28;20046;-65
2022/11/20 05:28:32;;;;;;;39.65;37.45;;;;;;;;;;10191878;28;20065;-65
2022/11/20 05:33:28;;;;;;;40.83;38.42;;;;;;;;;;10192112;28;20511;-65
2022/11/20 05:38:24;;;;;;;43.50;40.88;;;;;;;;;;10188476;28;20042;-65
2022/11/20 05:43:20;;;;;;;42.17;39.78;;;;;;;;;;10192118;28;20050;-65
2022/11/20 05:48:17;;;;;;;41.83;39.22;;;;;;;;;;10191244;28;20042;-65
2022/11/20 05:53:13;;;;;;;40.28;37.17;;;;;;;;;;10191963;28;20050;-65
2022/11/20 05:58:09;;;;;;;42.97;40.42;;;;;;;;;;10190057;28;20571;-65
2022/11/20 06:03:05;;;;;;;44.78;41.88;;;;;;;;;;10189119;28;20117;-65
2022/11/20 06:08:02;;;;;;;41.35;38.88;;;;;;;;;;10190817;28;20049;-65
2022/11/20 06:12:58;;;;;;;46.67;44.08;;;;;;;;;;10191593;28;20046;-65
2022/11/20 06:17:55;;;;;;;42.83;40.30;;;;;;;;;;10184219;28;20132;-65
2022/11/20 06:22:51;;;;;;;43.00;40.13;;;;;;;;;;10191353;28;20129;-65
2022/11/20 06:27:47;;;;;;;46.50;43.72;;;;;;;;;;10190456;28;20045;-65
2022/11/20 06:32:43;;;;;;;41.20;38.30;;;;;;;;;;10191216;28;20050;-65
2022/11/20 06:37:40;;;;;;;46.00;43.00;;;;;;;;;;10190226;28;20049;-65
2022/11/20 06:42:36;;;;;;;46.60;43.58;;;;;;;;;;10193122;28;20053;-65
2022/11/20 06:47:33;;;;;;;50.63;47.42;;;;;;;;;;10198067;28;20493;-65
2022/11/20 06:52:29;;;;;;;48.10;44.97;;;;;;;;;;10197943;28;20042;-65
2022/11/20 06:57:25;;;;;;;47.30;44.33;;;;;;;;;;10198409;28;20499;-65
2022/11/20 07:02:21;;;;;;;50.97;47.85;;;;;;;;;;10197273;28;20042;-65
2022/11/20 07:07:18;;;;;;;52.55;49.42;;;;;;;;;;10197729;28;20046;-65
2022/11/20 07:12:14;;;;;;;52.10;49.08;;;;;;;;;;10195738;28;20042;-65
2022/11/20 07:17:11;;;;;;;51.78;48.67;;;;;;;;;;10197702;28;20050;-65
2022/11/20 07:22:07;;;;;;;48.97;46.17;;;;;;;;;;10197360;28;20145;-65
2022/11/20 07:27:04;;;;;;;45.47;42.78;;;;;;;;;;10197492;28;20061;-65
2022/11/20 07:32:00;;;;;;;45.40;42.80;;;;;;;;;;10196801;28;20049;-65
2022/11/20 07:36:56;;;;;;;46.05;43.15;;;;;;;;;;10196871;28;20042;-65
2022/11/20 07:41:52;;;;;;;46.08;43.40;;;;;;;;;;10193057;28;20152;-65
2022/11/20 07:46:48;;;;;;;41.63;39.05;;;;;;;;;;10192788;28;20041;-65
2022/11/20 07:51:45;;;;;;;44.00;41.38;;;;;;;;;;10195434;28;20128;-65
2022/11/20 07:56:47;;;;;;;44.20;41.67;;;;;;;;;;10190174;28;20476;-65
2022/11/20 08:01:43;;;;;;;44.38;41.75;;;;;;;;;;10192544;28;20083;-65
2022/11/20 08:06:39;;;;;;;43.88;41.25;;;;;;;;;;10195519;28;20052;-65
2022/11/20 08:16:50;;;;;;;39.47;37.15;;;;;;;;;;10192709;28;20401;-65
2022/11/20 08:21:46;;;;;;;36.58;34.25;;;;;;;;;;10195111;28;20046;-65
2022/11/20 08:26:43;;;;;;;35.35;32.80;;;;;;;;;;10193512;28;20423;-65
2022/11/20 08:31:39;;;;;;;30.65;28.77;;;;;;;;;;10194813;28;20042;-65
2022/11/20 08:36:35;;;;;;;31.02;29.15;;;;;;;;;;10192960;28;20419;-65
2022/11/20 08:41:32;;;;;;;30.65;28.75;;;;;;;;;;10193912;28;20057;-65
2022/11/20 08:46:37;;;;;;;28.35;26.65;;;;;;;;;;10194204;28;20115;-65
2022/11/20 08:51:33;;;;;;;28.20;26.40;;;;;;;;;;10185955;28;20077;-65
2022/11/20 08:56:29;;;;;;;30.38;28.48;;;;;;;;;;10193357;28;20451;-65
2022/11/20 09:01:26;;;;;;;29.67;27.88;;;;;;;;;;10192333;28;20046;-65
2022/11/20 09:06:23;;;;;;;29.30;27.52;;;;;;;;;;10192072;28;20466;-65
2022/11/20 09:11:19;;;;;;;24.67;23.15;;;;;;;;;;10193023;28;20125;-65
2022/11/20 09:16:15;;;;;;;28.00;26.10;;;;;;;;;;10191936;28;20415;-65
2022/11/20 09:21:13;;;;;;;31.40;29.60;;;;;;;;;;10189956;28;20045;-65
2022/11/20 09:26:11;;;;;;;36.05;33.95;;;;;;;;;;10192590;28;20034;-65
2022/11/20 09:31:08;;;;;;;47.80;44.90;;;;;;;;;;10191839;28;20042;-65
2022/11/20 09:36:05;;;;;;;52.45;49.30;;;;;;;;;;10192287;28;20068;-65
2022/11/20 09:41:03;;;;;;;56.67;53.60;;;;;;;;;;10189245;28;20136;-65
2022/11/20 09:46:04;;;;;;;62.22;58.92;;;;;;;;;;10190611;28;20045;-65
2022/11/20 09:51:27;;;;;;;67.05;63.45;;;;;;;;;;10188899;28;20510;-65
2022/11/20 09:56:23;;;;;;;61.43;58.00;;;;;;;;;;10178230;28;20502;-65
2022/11/20 10:01:29;;;;;;;57.92;54.72;;;;;;;;;;10188559;28;20410;-65
2022/11/20 10:06:29;;;;;;;51.95;49.13;;;;;;;;;;10190870;28;20235;-65
2022/11/20 10:11:32;;;;;;;52.03;49.13;;;;;;;;;;10190987;28;20506;-65
2022/11/20 10:16:28;;;;;;;;;;;;;;;;;;10193877;28;20034;-65
2022/11/20 10:21:27;;;;;;;44.95;42.45;;;;;;;;;;10198492;28;19936;-65
2022/11/20 10:26:39;;;;;;;42.65;40.15;;;;;;;;;;10199132;28;20422;-65
2022/11/20 10:31:37;;;;;;;38.72;36.28;;;;;;;;;;10197113;28;20310;-64
2022/11/20 10:36:36;;;;;;;39.88;37.45;;;;;;;;;;10198385;28;20057;-65
2022/11/20 10:41:36;;;;;;;35.17;33.17;;;;;;;;;;10191351;28;20050;-65
2022/11/20 10:46:59;;;;;;;29.73;28.02;;;;;;;;;;10189785;28;20101;-66
2022/11/20 10:51:58;;;;;;;34.23;32.30;;;;;;;;;;10191163;28;20520;-65
2022/11/20 10:57:00;;;;;;;30.15;28.35;;;;;;;;;;10196469;28;20618;-65
2022/11/20 11:01:56;;;;;;;22.48;21.08;;;;;;;;;;10196454;28;20138;-65
2022/11/20 11:06:55;;;;;;;22.00;20.58;;;;;;;;;;10196566;28;20121;-65
2022/11/20 11:11:51;;;;;;;23.20;21.80;;;;;;;;;;10193830;28;20132;-65
2022/11/20 11:16:51;;;;;;;22.98;21.48;;;;;;;;;;10197165;28;20069;-65
2022/11/20 11:21:49;;;;;;;21.75;20.35;;;;;;;;;;10196848;28;20050;-65
2022/11/20 11:26:58;;;;;;;21.05;19.75;;;;;;;;;;10196289;28;20041;-65
2022/11/20 11:32:15;;;;;;;21.23;19.83;;;;;;;;;;10193239;28;20052;-65
2022/11/20 11:37:19;;;;;;;19.27;17.92;;;;;;;;;;10195551;28;20125;-65
2022/11/20 11:42:17;;;;;;;19.60;18.30;;;;;;;;;;10194487;28;20077;-65
2022/11/20 11:47:24;;;;;;;18.90;17.60;;;;;;;;;;10195552;28;20050;-65
2022/11/20 11:52:22;;;;;;;17.48;16.27;;;;;;;;;;10193938;28;20073;-65
2022/11/20 11:57:38;;;;;;;18.15;16.88;;;;;;;;;;10195160;28;20499;-65
2022/11/20 12:02:40;;;;;;;18.05;16.95;;;;;;;;;;10195034;28;20053;-65
2022/11/20 12:07:45;;;;;;;16.48;15.38;;;;;;;;;;10191221;28;20077;-66
2022/11/20 12:12:44;;;;;;;16.98;15.88;;;;;;;;;;10194290;28;20046;-65
2022/11/20 12:17:41;;;;;;;17.10;15.80;;;;;;;;;;10193025;28;20049;-65
2022/11/20 12:22:50;;;;;;;16.02;14.93;;;;;;;;;;10194291;28;20052;-65
2022/11/20 12:27:52;;;;;;;15.10;14.13;;;;;;;;;;10193408;28;20068;-65
2022/11/20 12:33:07;;;;;;;16.13;14.93;;;;;;;;;;10194057;28;20057;-65
2022/11/20 12:38:22;;;;;;;15.10;14.10;;;;;;;;;;10192671;28;20685;-66
2022/11/20 12:48:52;;;;;;;15.27;14.27;;;;;;;;;;10185544;28;20084;-65
2022/11/20 12:53:58;;;;;;;13.98;12.90;;;;;;;;;;10190323;28;20396;-65
2022/11/20 12:59:02;;;;;;;14.18;13.18;;;;;;;;;;10192485;28;20064;-65
2022/11/20 13:04:07;;;;;;;13.30;12.40;;;;;;;;;;10190197;28;20042;-65
2022/11/20 13:09:08;;;;;;;14.23;13.25;;;;;;;;;;10189236;28;20057;-65
2022/11/20 13:14:11;;;;;;;13.57;12.65;;;;;;;;;;10192482;28;20049;-65
2022/11/20 13:19:10;;;;;;;14.48;13.48;;;;;;;;;;10192500;28;20034;-65
2022/11/20 13:24:19;;;;;;;13.40;12.40;;;;;;;;;;10191539;28;20128;-65
2022/11/20 13:29:18;;;;;;;12.75;11.95;;;;;;;;;;10192455;28;20044;-66
2022/11/20 13:34:23;;;;;;;13.25;12.13;;;;;;;;;;10192103;28;20058;-65
2022/11/20 13:39:24;;;;;;;11.35;10.45;;;;;;;;;;10191618;28;20046;-64
2022/11/20 13:44:26;;;;;;;12.95;11.85;;;;;;;;;;10192043;28;20042;-65
2022/11/20 13:49:22;;;;;;;12.57;11.67;;;;;;;;;;10189498;28;20046;-66
2022/11/20 13:54:22;;;;;;;13.27;12.38;;;;;;;;;;10191115;28;20537;-65
2022/11/20 13:59:28;;;;;;;14.15;13.05;;;;;;;;;;10182922;28;20034;-66
2022/11/20 14:04:33;;;;;;;13.45;12.45;;;;;;;;;;10189274;28;20049;-65
2022/11/20 14:09:31;;;;;;;13.77;12.88;;;;;;;;;;10190637;28;20042;-65
2022/11/20 14:14:29;;;;;;;13.57;12.68;;;;;;;;;;10191164;28;20125;-65
2022/11/20 14:19:27;;;;;;;13.98;12.90;;;;;;;;;;10190253;28;20058;-65
2022/11/20 14:24:24;;;;;;;14.15;13.25;;;;;;;;;;10190192;28;20060;-65
2022/11/20 14:29:26;;;;;;;15.05;14.05;;;;;;;;;;10189797;28;20504;-65
2022/11/20 14:34:24;;;;;;;14.50;13.57;;;;;;;;;;10187879;28;20049;-65
2022/11/20 14:39:21;;;;;;;14.80;13.68;;;;;;;;;;10191087;28;20459;-66
2022/11/20 14:44:19;;;;;;;15.60;14.40;;;;;;;;;;10190837;28;20074;-65
2022/11/20 14:49:16;;;;;;;17.02;15.45;;;;;;;;;;10190513;28;20103;-65
2022/11/20 14:54:17;;;;;;;15.40;14.23;;;;;;;;;;10191070;28;20073;-65
2022/11/20 14:59:22;;;;;;;15.00;14.00;;;;;;;;;;10182284;28;20601;-65
2022/11/20 15:04:18;;;;;;;14.32;13.23;;;;;;;;;;10195303;28;20440;-65
2022/11/20 15:09:15;;;;;;;15.38;14.38;;;;;;;;;;10196843;28;20058;-65
2022/11/20 15:14:11;;;;;;;15.82;14.57;;;;;;;;;;10196282;28;20044;-65
2022/11/20 15:19:15;;;;;;;15.80;14.63;;;;;;;;;;10197741;28;20133;-65
2022/11/20 15:24:11;;;;;;;18.70;17.05;;;;;;;;;;10197074;28;20069;-65
2022/11/20 15:29:09;;;;;;;17.08;15.50;;;;;;;;;;10197166;28;20508;-65
2022/11/20 15:34:09;;;;;;;17.83;16.08;;;;;;;;;;10196360;28;20411;-65
2022/11/20 15:39:07;;;;;;;17.45;16.05;;;;;;;;;;10194875;28;20044;-65
2022/11/20 15:44:04;;;;;;;16.15;14.93;;;;;;;;;;10196125;28;20073;-65
2022/11/20 15:49:00;;;;;;;16.05;14.85;;;;;;;;;;10193279;28;20081;-65
2022/11/20 15:53:57;;;;;;;15.90;14.75;;;;;;;;;;10192891;28;20056;-65
2022/11/20 15:58:53;;;;;;;15.27;14.18;;;;;;;;;;10194014;28;20049;-65
2022/11/20 16:03:49;;;;;;;14.93;13.88;;;;;;;;;;10186213;28;20052;-65
2022/11/20 16:08:45;;;;;;;15.18;14.02;;;;;;;;;;10193541;28;20058;-65
2022/11/20 16:18:57;;;;;;;15.68;14.48;;;;;;;;;;10191231;28;20052;-65
2022/11/20 16:23:53;;;;;;;14.77;13.55;;;;;;;;;;10194921;28;20500;-65
2022/11/20 16:28:50;;;;;;;15.13;14.13;;;;;;;;;;10194170;28;20048;-65
2022/11/20 16:33:53;;;;;;;15.18;14.07;;;;;;;;;;10194453;28;20042;-65
2022/11/20 16:38:56;;;;;;;16.48;15.27;;;;;;;;;;10193729;28;20050;-65
2022/11/20 16:43:54;;;;;;;15.38;14.18;;;;;;;;;;10191587;28;20061;-66
2022/11/20 16:49:00;;;;;;;15.73;14.52;;;;;;;;;;10184128;28;20049;-65
2022/11/20 16:53:56;;;;;;;16.60;15.25;;;;;;;;;;10190142;28;20042;-66
2022/11/20 16:58:56;;;;;;;16.70;15.50;;;;;;;;;;10192066;28;20050;-65
2022/11/20 17:03:54;;;;;;;18.48;17.10;;;;;;;;;;10193512;28;20081;-65
2022/11/20 17:08:50;;;;;;;18.55;16.95;;;;;;;;;;10192542;28;20046;-65
2022/11/20 17:13:46;;;;;;;18.13;16.77;;;;;;;;;;10193165;28;20518;-65
2022/11/20 17:18:43;;;;;;;17.77;16.58;;;;;;;;;;10192173;28;20049;-65
2022/11/20 17:23:40;;;;;;;19.25;17.88;;;;;;;;;;10192285;28;20580;-65
2022/11/20 17:28:37;;;;;;;19.02;17.73;;;;;;;;;;10192284;28;20504;-65
2022/11/20 17:33:38;;;;;;;18.92;17.73;;;;;;;;;;10191914;28;20042;-65
2022/11/20 17:38:34;;;;;;;19.67;18.33;;;;;;;;;;10192044;28;20048;-65
2022/11/20 17:43:31;;;;;;;19.98;18.58;;;;;;;;;;10191464;28;20049;-65
2022/11/20 17:48:31;;;;;;;19.50;18.20;;;;;;;;;;10180915;28;20508;-65
2022/11/20 17:53:31;;;;;;;20.30;18.90;;;;;;;;;;10191245;28;20121;-65
2022/11/20 17:58:27;;;;;;;21.15;19.38;;;;;;;;;;10189140;28;20048;-65
2022/11/20 18:03:24;;;;;;;20.92;19.50;;;;;;;;;;10189966;28;20080;-65
2022/11/20 18:08:20;;;;;;;22.73;20.80;;;;;;;;;;10190485;28;20049;-65
2022/11/20 18:13:16;;;;;;;21.45;19.92;;;;;;;;;;10191382;28;20125;-65
2022/11/20 18:18:13;;;;;;;22.52;20.67;;;;;;;;;;10190860;28;20053;-65
2022/11/20 18:23:09;;;;;;;22.80;21.10;;;;;;;;;;10190695;28;20045;-66
2022/11/20 18:28:06;;;;;;;24.60;22.40;;;;;;;;;;10190321;28;20041;-65
2022/11/20 18:33:03;;;;;;;23.77;21.80;;;;;;;;;;10191404;28;20125;-65
2022/11/20 18:37:59;;;;;;;24.77;22.67;;;;;;;;;;10191881;28;20041;-65
2022/11/20 18:48:10;;;;;;;24.40;22.70;;;;;;;;;;10194530;28;20184;-65
2022/11/20 18:53:06;;;;;;;23.70;22.00;;;;;;;;;;10197627;28;20495;-65
2022/11/20 18:58:03;;;;;;;23.00;21.20;;;;;;;;;;10198424;28;20177;-65
2022/11/20 19:02:59;;;;;;;24.90;22.10;;;;;;;;;;10197469;28;20038;-65
2022/11/20 19:07:55;;;;;;;23.58;21.67;;;;;;;;;;10197550;28;20100;-65
2022/11/20 19:12:51;;;;;;;27.38;25.00;;;;;;;;;;10197145;28;20053;-65
2022/11/20 19:17:48;;;;;;;26.92;24.60;;;;;;;;;;10195942;28;20507;-65
2022/11/20 19:22:49;;;;;;;27.83;25.38;;;;;;;;;;10197042;28;20049;-65
2022/11/20 19:27:45;;;;;;;30.60;27.60;;;;;;;;;;10194048;28;20065;-65
2022/11/20 19:32:41;;;;;;;31.10;28.08;;;;;;;;;;10196476;28;20058;-66
2022/11/20 19:37:37;;;;;;;31.48;28.58;;;;;;;;;;10195719;28;20623;-65
2022/11/20 19:42:33;;;;;;;31.50;28.55;;;;;;;;;;10197007;28;20061;-65
2022/11/20 19:47:30;;;;;;;34.13;30.88;;;;;;;;;;10195879;28;20516;-65
2022/11/20 19:52:46;;;;;;;32.95;30.05;;;;;;;;;;10195383;28;20073;-65
2022/11/20 19:57:42;;;;;;;35.45;32.17;;;;;;;;;;10196313;28;20058;-65
2022/11/20 20:02:39;;;;;;;35.35;32.17;;;;;;;;;;10191800;28;20066;-65
2022/11/20 20:07:35;;;;;;;35.70;32.20;;;;;;;;;;10195358;28;20046;-65
2022/11/20 20:12:31;;;;;;;35.05;31.95;;;;;;;;;;10193910;28;20726;-65
2022/11/20 20:17:28;;;;;;;36.45;33.10;;;;;;;;;;10195295;28;20420;-65
2022/11/20 20:22:24;;;;;;;35.15;32.13;;;;;;;;;;10194482;28;20520;-65
2022/11/20 20:27:20;;;;;;;35.17;32.22;;;;;;;;;;10194376;28;20042;-66
2022/11/20 20:32:16;;;;;;;35.13;32.22;;;;;;;;;;10194804;28;20129;-65
2022/11/20 20:37:12;;;;;;;35.78;32.28;;;;;;;;;;10193635;28;20046;-65
2022/11/20 20:42:09;;;;;;;35.33;31.95;;;;;;;;;;10195104;28;20124;-65
2022/11/20 20:47:05;;;;;;;35.10;32.03;;;;;;;;;;10193113;28;20568;-65
2022/11/20 20:52:02;;;;;;;37.90;34.45;;;;;;;;;;10194030;28;20053;-65
2022/11/20 20:56:58;;;;;;;41.67;37.92;;;;;;;;;;10192815;28;20041;-65
2022/11/20 21:01:54;;;;;;;42.90;39.10;;;;;;;;;;10191717;28;20464;-65
2022/11/20 21:06:51;;;;;;;44.97;41.25;;;;;;;;;;10193847;28;20045;-65
2022/11/20 21:11:47;;;;;;;44.50;40.58;;;;;;;;;;10192445;28;20046;-65
2022/11/20 21:16:43;;;;;;;49.00;44.90;;;;;;;;;;10193483;28;20124;-65
2022/11/20 21:21:58;;;;;;;53.40;48.90;;;;;;;;;;10192668;28;20042;-65
2022/11/20 21:26:54;;;;;;;52.08;47.75;;;;;;;;;;10191980;28;20124;-65
2022/11/20 21:31:52;;;;;;;52.55;48.42;;;;;;;;;;10192050;28;20121;-65
2022/11/20 21:36:48;;;;;;;54.72;50.60;;;;;;;;;;10191285;28;20046;-65
2022/11/20 21:41:44;;;;;;;55.83;51.60;;;;;;;;;;10185870;28;20049;-65
2022/11/20 21:46:41;;;;;;;57.28;52.42;;;;;;;;;;10190826;28;20112;-65
2022/11/20 21:51:38;;;;;;;64.22;59.33;;;;;;;;;;10192258;28;20042;-65
2022/11/20 21:56:34;;;;;;;65.45;60.65;;;;;;;;;;10190419;28;20132;-65
2022/11/20 22:01:30;;;;;;;67.32;62.50;;;;;;;;;;10190642;28;20046;-65
2022/11/20 22:06:31;;;;;;;66.13;61.42;;;;;;;;;;10190417;28;20108;-65
2022/11/20 22:11:27;;;;;;;66.50;61.35;;;;;;;;;;10189539;28;20139;-65
2022/11/20 22:16:24;;;;;;;68.47;63.20;;;;;;;;;;10190277;28;20053;-65
2022/11/20 22:21:21;;;;;;;64.03;59.33;;;;;;;;;;10187806;28;20057;-65
2022/11/20 22:26:19;;;;;;;64.68;59.78;;;;;;;;;;10191043;28;20053;-65
2022/11/20 22:31:15;;;;;;;68.25;63.22;;;;;;;;;;10190594;28;20045;-65
2022/11/20 22:36:13;;;;;;;65.75;60.78;;;;;;;;;;10189946;28;20042;-65
2022/11/20 22:41:10;;;;;;;64.55;59.90;;;;;;;;;;10190284;28;20062;-65
2022/11/20 22:46:10;;;;;;;65.10;60.22;;;;;;;;;;10188276;28;20054;-65
2022/11/20 22:51:08;;;;;;;66.45;61.63;;;;;;;;;;10191247;28;20056;-65
2022/11/20 22:56:05;;;;;;;75.63;70.05;;;;;;;;;;10189538;28;20049;-65
2022/11/20 23:01:12;;;;;;;78.78;73.50;;;;;;;;;;10188848;28;20049;-65
2022/11/20 23:06:08;;;;;;;77.53;72.13;;;;;;;;;;10196271;28;20056;-65
2022/11/20 23:11:06;;;;;;;75.10;69.43;;;;;;;;;;10191334;28;20038;-65
2022/11/20 23:16:03;;;;;;;74.38;69.03;;;;;;;;;;10188478;28;20129;-65
2022/11/20 23:21:07;;;;;;;73.43;68.22;;;;;;;;;;10189699;28;20046;-65
2022/11/20 23:26:07;;;;;;;76.10;70.65;;;;;;;;;;10184986;28;20072;-65
2022/11/20 23:31:04;;;;;;;70.63;65.78;;;;;;;;;;10197207;28;20046;-65
2022/11/20 23:36:00;;;;;;;72.32;67.03;;;;;;;;;;10196901;28;20048;-65
2022/11/20 23:40:56;;;;;;;75.38;69.75;;;;;;;;;;10191447;28;20046;-65
2022/11/20 23:45:54;;;;;;;75.13;69.88;;;;;;;;;;10196911;28;20801;-65
2022/11/20 23:50:50;;;;;;;72.95;67.95;;;;;;;;;;10191007;28;20046;-65
2022/11/20 23:55:48;;;;;;;74.75;69.45;;;;;;;;;;10194370;28;20129;-65
